sensor_id;sensor_type;location;lat;lon;timestamp;P1;durP1;ratioP1;P2;durP2;ratioP2
41293;SDS011;27037;52.010;4.446;2023-07-30T00:01:41;33.05;;;5.00;;
41293;SDS011;27037;52.010;4.446;2023-07-30T00:04:07;34.90;;;5.22;;
41293;SDS011;27037;52.010;4.446;2023-07-30T00:06:33;35.40;;;5.18;;
41293;SDS011;27037;52.010;4.446;2023-07-30T00:08:58;31.83;;;5.07;;
41293;SDS011;27037;52.010;4.446;2023-07-30T00:11:24;37.78;;;5.72;;
41293;SDS011;27037;52.010;4.446;2023-07-30T00:13:49;41.03;;;5.45;;
41293;SDS011;27037;52.010;4.446;2023-07-30T00:16:15;31.23;;;5.00;;
41293;SDS011;27037;52.010;4.446;2023-07-30T00:18:41;30.88;;;5.10;;
41293;SDS011;27037;52.010;4.446;2023-07-30T00:21:06;38.78;;;5.55;;
41293;SDS011;27037;52.010;4.446;2023-07-30T00:23:32;30.92;;;4.93;;
41293;SDS011;27037;52.010;4.446;2023-07-30T00:25:57;30.08;;;4.88;;
41293;SDS011;27037;52.010;4.446;2023-07-30T00:28:23;32.50;;;5.30;;
41293;SDS011;27037;52.010;4.446;2023-07-30T00:30:49;29.45;;;4.60;;
41293;SDS011;27037;52.010;4.446;2023-07-30T00:33:14;31.90;;;4.80;;
41293;SDS011;27037;52.010;4.446;2023-07-30T00:35:40;40.67;;;5.63;;
41293;SDS011;27037;52.010;4.446;2023-07-30T00:38:05;31.20;;;5.35;;
41293;SDS011;27037;52.010;4.446;2023-07-30T00:40:31;31.33;;;5.25;;
41293;SDS011;27037;52.010;4.446;2023-07-30T00:42:57;39.30;;;5.70;;
41293;SDS011;27037;52.010;4.446;2023-07-30T00:45:22;37.85;;;5.63;;
41293;SDS011;27037;52.010;4.446;2023-07-30T00:47:48;39.13;;;5.78;;
41293;SDS011;27037;52.010;4.446;2023-07-30T00:50:14;32.13;;;5.32;;
41293;SDS011;27037;52.010;4.446;2023-07-30T00:52:42;43.55;;;5.63;;
41293;SDS011;27037;52.010;4.446;2023-07-30T00:55:08;33.03;;;5.63;;
41293;SDS011;27037;52.010;4.446;2023-07-30T00:57:36;33.55;;;5.05;;
41293;SDS011;27037;52.010;4.446;2023-07-30T01:00:02;33.88;;;5.55;;
41293;SDS011;27037;52.010;4.446;2023-07-30T01:02:31;34.25;;;5.05;;
41293;SDS011;27037;52.010;4.446;2023-07-30T01:04:57;36.67;;;5.43;;
41293;SDS011;27037;52.010;4.446;2023-07-30T01:07:25;39.25;;;5.72;;
41293;SDS011;27037;52.010;4.446;2023-07-30T01:09:50;32.20;;;5.00;;
41293;SDS011;27037;52.010;4.446;2023-07-30T01:12:16;35.78;;;5.38;;
41293;SDS011;27037;52.010;4.446;2023-07-30T01:14:42;35.08;;;5.45;;
41293;SDS011;27037;52.010;4.446;2023-07-30T01:17:10;35.78;;;5.38;;
41293;SDS011;27037;52.010;4.446;2023-07-30T01:19:37;34.75;;;5.32;;
41293;SDS011;27037;52.010;4.446;2023-07-30T01:22:02;40.58;;;5.97;;
41293;SDS011;27037;52.010;4.446;2023-07-30T01:24:28;43.45;;;5.63;;
41293;SDS011;27037;52.010;4.446;2023-07-30T01:27:11;37.50;;;5.18;;
41293;SDS011;27037;52.010;4.446;2023-07-30T01:29:42;46.35;;;6.47;;
41293;SDS011;27037;52.010;4.446;2023-07-30T01:32:17;44.20;;;5.60;;
41293;SDS011;27037;52.010;4.446;2023-07-30T01:34:49;30.73;;;5.47;;
41293;SDS011;27037;52.010;4.446;2023-07-30T01:37:19;32.03;;;4.80;;
41293;SDS011;27037;52.010;4.446;2023-07-30T01:39:45;40.72;;;5.53;;
41293;SDS011;27037;52.010;4.446;2023-07-30T01:42:13;39.72;;;5.63;;
41293;SDS011;27037;52.010;4.446;2023-07-30T01:44:39;42.33;;;5.75;;
41293;SDS011;27037;52.010;4.446;2023-07-30T01:47:05;40.58;;;5.55;;
41293;SDS011;27037;52.010;4.446;2023-07-30T01:49:31;36.53;;;5.30;;
41293;SDS011;27037;52.010;4.446;2023-07-30T01:51:56;42.53;;;5.80;;
41293;SDS011;27037;52.010;4.446;2023-07-30T01:54:22;37.38;;;5.28;;
41293;SDS011;27037;52.010;4.446;2023-07-30T01:56:47;39.38;;;5.65;;
41293;SDS011;27037;52.010;4.446;2023-07-30T01:59:13;33.67;;;5.22;;
41293;SDS011;27037;52.010;4.446;2023-07-30T02:01:40;28.27;;;5.32;;
41293;SDS011;27037;52.010;4.446;2023-07-30T02:04:06;38.05;;;5.63;;
41293;SDS011;27037;52.010;4.446;2023-07-30T02:06:31;39.55;;;5.32;;
41293;SDS011;27037;52.010;4.446;2023-07-30T02:08:57;37.17;;;5.05;;
41293;SDS011;27037;52.010;4.446;2023-07-30T02:11:23;43.95;;;6.18;;
41293;SDS011;27037;52.010;4.446;2023-07-30T02:13:48;43.80;;;5.82;;
41293;SDS011;27037;52.010;4.446;2023-07-30T02:16:14;31.33;;;5.13;;
41293;SDS011;27037;52.010;4.446;2023-07-30T02:18:39;34.33;;;4.95;;
41293;SDS011;27037;52.010;4.446;2023-07-30T02:21:05;38.70;;;5.22;;
41293;SDS011;27037;52.010;4.446;2023-07-30T02:23:31;39.85;;;5.32;;
41293;SDS011;27037;52.010;4.446;2023-07-30T02:25:56;39.53;;;5.85;;
41293;SDS011;27037;52.010;4.446;2023-07-30T02:28:22;33.30;;;5.28;;
41293;SDS011;27037;52.010;4.446;2023-07-30T02:30:48;35.30;;;5.47;;
41293;SDS011;27037;52.010;4.446;2023-07-30T02:33:13;32.28;;;5.25;;
41293;SDS011;27037;52.010;4.446;2023-07-30T02:35:39;37.67;;;5.88;;
41293;SDS011;27037;52.010;4.446;2023-07-30T02:38:05;35.33;;;5.68;;
41293;SDS011;27037;52.010;4.446;2023-07-30T02:40:30;39.05;;;6.03;;
41293;SDS011;27037;52.010;4.446;2023-07-30T02:42:56;39.25;;;5.55;;
41293;SDS011;27037;52.010;4.446;2023-07-30T02:45:22;37.97;;;5.22;;
41293;SDS011;27037;52.010;4.446;2023-07-30T02:47:47;40.75;;;5.80;;
41293;SDS011;27037;52.010;4.446;2023-07-30T02:50:13;36.05;;;5.43;;
41293;SDS011;27037;52.010;4.446;2023-07-30T02:52:39;39.28;;;5.47;;
41293;SDS011;27037;52.010;4.446;2023-07-30T02:55:04;31.90;;;5.00;;
41293;SDS011;27037;52.010;4.446;2023-07-30T02:57:30;37.80;;;5.60;;
41293;SDS011;27037;52.010;4.446;2023-07-30T02:59:56;34.90;;;4.90;;
41293;SDS011;27037;52.010;4.446;2023-07-30T03:02:22;36.17;;;5.15;;
41293;SDS011;27037;52.010;4.446;2023-07-30T03:04:48;32.47;;;5.05;;
41293;SDS011;27037;52.010;4.446;2023-07-30T03:07:13;28.33;;;4.55;;
41293;SDS011;27037;52.010;4.446;2023-07-30T03:09:39;30.88;;;5.00;;
41293;SDS011;27037;52.010;4.446;2023-07-30T03:12:04;30.70;;;4.40;;
41293;SDS011;27037;52.010;4.446;2023-07-30T03:14:31;23.95;;;4.32;;
41293;SDS011;27037;52.010;4.446;2023-07-30T03:16:56;20.80;;;3.92;;
41293;SDS011;27037;52.010;4.446;2023-07-30T03:19:22;26.25;;;4.20;;
41293;SDS011;27037;52.010;4.446;2023-07-30T03:21:47;24.42;;;4.20;;
41293;SDS011;27037;52.010;4.446;2023-07-30T03:24:13;17.33;;;3.60;;
41293;SDS011;27037;52.010;4.446;2023-07-30T03:26:39;23.83;;;3.75;;
41293;SDS011;27037;52.010;4.446;2023-07-30T03:29:04;17.75;;;3.22;;
41293;SDS011;27037;52.010;4.446;2023-07-30T03:31:30;24.50;;;3.83;;
41293;SDS011;27037;52.010;4.446;2023-07-30T03:33:55;26.15;;;3.63;;
41293;SDS011;27037;52.010;4.446;2023-07-30T03:36:21;15.73;;;2.90;;
41293;SDS011;27037;52.010;4.446;2023-07-30T03:38:47;21.70;;;3.33;;
41293;SDS011;27037;52.010;4.446;2023-07-30T03:41:12;18.55;;;3.53;;
41293;SDS011;27037;52.010;4.446;2023-07-30T03:43:38;18.77;;;3.35;;
41293;SDS011;27037;52.010;4.446;2023-07-30T03:46:04;16.00;;;2.75;;
41293;SDS011;27037;52.010;4.446;2023-07-30T03:48:29;21.13;;;3.38;;
41293;SDS011;27037;52.010;4.446;2023-07-30T03:50:55;18.40;;;3.58;;
41293;SDS011;27037;52.010;4.446;2023-07-30T03:53:21;21.92;;;3.55;;
41293;SDS011;27037;52.010;4.446;2023-07-30T03:55:47;23.40;;;3.30;;
41293;SDS011;27037;52.010;4.446;2023-07-30T03:58:13;18.30;;;3.30;;
41293;SDS011;27037;52.010;4.446;2023-07-30T04:00:39;17.25;;;2.70;;
41293;SDS011;27037;52.010;4.446;2023-07-30T04:03:05;16.73;;;2.83;;
41293;SDS011;27037;52.010;4.446;2023-07-30T04:05:31;15.45;;;2.60;;
41293;SDS011;27037;52.010;4.446;2023-07-30T04:07:57;12.40;;;2.40;;
41293;SDS011;27037;52.010;4.446;2023-07-30T04:10:22;12.95;;;2.85;;
41293;SDS011;27037;52.010;4.446;2023-07-30T04:12:48;15.43;;;2.70;;
41293;SDS011;27037;52.010;4.446;2023-07-30T04:15:14;13.45;;;2.50;;
41293;SDS011;27037;52.010;4.446;2023-07-30T04:17:41;13.27;;;2.05;;
41293;SDS011;27037;52.010;4.446;2023-07-30T04:20:07;12.18;;;1.90;;
41293;SDS011;27037;52.010;4.446;2023-07-30T04:22:34;10.65;;;2.40;;
41293;SDS011;27037;52.010;4.446;2023-07-30T04:25:00;9.05;;;1.80;;
41293;SDS011;27037;52.010;4.446;2023-07-30T04:27:26;11.10;;;2.17;;
41293;SDS011;27037;52.010;4.446;2023-07-30T04:29:52;13.10;;;2.00;;
41293;SDS011;27037;52.010;4.446;2023-07-30T04:32:17;8.73;;;1.92;;
41293;SDS011;27037;52.010;4.446;2023-07-30T04:34:43;11.40;;;2.17;;
41293;SDS011;27037;52.010;4.446;2023-07-30T04:37:08;8.90;;;1.90;;
41293;SDS011;27037;52.010;4.446;2023-07-30T04:39:34;10.85;;;1.95;;
41293;SDS011;27037;52.010;4.446;2023-07-30T04:42:01;8.68;;;1.90;;
41293;SDS011;27037;52.010;4.446;2023-07-30T04:44:26;10.80;;;2.35;;
41293;SDS011;27037;52.010;4.446;2023-07-30T04:46:52;8.40;;;1.98;;
41293;SDS011;27037;52.010;4.446;2023-07-30T04:49:18;8.35;;;1.83;;
41293;SDS011;27037;52.010;4.446;2023-07-30T04:51:44;9.63;;;1.77;;
41293;SDS011;27037;52.010;4.446;2023-07-30T04:54:09;8.65;;;1.70;;
41293;SDS011;27037;52.010;4.446;2023-07-30T04:56:35;10.27;;;1.95;;
41293;SDS011;27037;52.010;4.446;2023-07-30T04:59:01;10.05;;;1.77;;
41293;SDS011;27037;52.010;4.446;2023-07-30T05:01:27;11.90;;;2.08;;
41293;SDS011;27037;52.010;4.446;2023-07-30T05:03:53;9.70;;;2.00;;
41293;SDS011;27037;52.010;4.446;2023-07-30T05:06:19;11.57;;;1.92;;
41293;SDS011;27037;52.010;4.446;2023-07-30T05:08:45;8.60;;;1.85;;
41293;SDS011;27037;52.010;4.446;2023-07-30T05:11:10;17.73;;;2.10;;
41293;SDS011;27037;52.010;4.446;2023-07-30T05:13:36;8.73;;;1.90;;
41293;SDS011;27037;52.010;4.446;2023-07-30T05:16:01;10.45;;;2.22;;
41293;SDS011;27037;52.010;4.446;2023-07-30T05:18:27;13.25;;;2.90;;
41293;SDS011;27037;52.010;4.446;2023-07-30T05:20:54;16.42;;;2.75;;
41293;SDS011;27037;52.010;4.446;2023-07-30T05:23:20;10.38;;;2.63;;
41293;SDS011;27037;52.010;4.446;2023-07-30T05:25:45;16.02;;;2.72;;
41293;SDS011;27037;52.010;4.446;2023-07-30T05:28:11;21.17;;;3.88;;
41293;SDS011;27037;52.010;4.446;2023-07-30T05:30:37;15.70;;;3.10;;
41293;SDS011;27037;52.010;4.446;2023-07-30T05:33:03;19.40;;;3.25;;
41293;SDS011;27037;52.010;4.446;2023-07-30T05:35:29;22.77;;;3.83;;
41293;SDS011;27037;52.010;4.446;2023-07-30T05:37:55;22.73;;;3.90;;
41293;SDS011;27037;52.010;4.446;2023-07-30T05:40:20;19.63;;;3.85;;
41293;SDS011;27037;52.010;4.446;2023-07-30T05:42:46;18.42;;;3.70;;
41293;SDS011;27037;52.010;4.446;2023-07-30T05:45:12;29.40;;;4.85;;
41293;SDS011;27037;52.010;4.446;2023-07-30T05:47:38;26.80;;;4.20;;
41293;SDS011;27037;52.010;4.446;2023-07-30T05:50:04;25.75;;;4.18;;
41293;SDS011;27037;52.010;4.446;2023-07-30T05:52:30;28.45;;;3.92;;
41293;SDS011;27037;52.010;4.446;2023-07-30T05:54:56;27.10;;;4.25;;
41293;SDS011;27037;52.010;4.446;2023-07-30T05:57:21;26.98;;;4.93;;
41293;SDS011;27037;52.010;4.446;2023-07-30T05:59:47;25.40;;;4.45;;
41293;SDS011;27037;52.010;4.446;2023-07-30T06:02:12;24.55;;;4.35;;
41293;SDS011;27037;52.010;4.446;2023-07-30T06:04:38;26.27;;;4.30;;
41293;SDS011;27037;52.010;4.446;2023-07-30T06:07:04;25.70;;;5.30;;
41293;SDS011;27037;52.010;4.446;2023-07-30T06:09:30;25.27;;;4.25;;
41293;SDS011;27037;52.010;4.446;2023-07-30T06:11:57;22.63;;;4.30;;
41293;SDS011;27037;52.010;4.446;2023-07-30T06:14:23;23.67;;;4.32;;
41293;SDS011;27037;52.010;4.446;2023-07-30T06:16:52;25.27;;;3.80;;
41293;SDS011;27037;52.010;4.446;2023-07-30T06:19:18;19.15;;;3.42;;
41293;SDS011;27037;52.010;4.446;2023-07-30T06:21:44;30.73;;;4.25;;
41293;SDS011;27037;52.010;4.446;2023-07-30T06:24:10;20.52;;;3.85;;
41293;SDS011;27037;52.010;4.446;2023-07-30T06:26:36;26.67;;;3.92;;
41293;SDS011;27037;52.010;4.446;2023-07-30T06:29:01;21.23;;;3.90;;
41293;SDS011;27037;52.010;4.446;2023-07-30T06:31:27;22.88;;;4.05;;
41293;SDS011;27037;52.010;4.446;2023-07-30T06:33:53;20.90;;;4.13;;
41293;SDS011;27037;52.010;4.446;2023-07-30T06:36:19;20.75;;;3.80;;
41293;SDS011;27037;52.010;4.446;2023-07-30T06:38:44;22.92;;;3.80;;
41293;SDS011;27037;52.010;4.446;2023-07-30T06:41:10;26.02;;;3.83;;
41293;SDS011;27037;52.010;4.446;2023-07-30T06:43:36;28.15;;;4.35;;
41293;SDS011;27037;52.010;4.446;2023-07-30T06:46:01;18.95;;;3.13;;
41293;SDS011;27037;52.010;4.446;2023-07-30T06:48:27;27.70;;;3.70;;
41293;SDS011;27037;52.010;4.446;2023-07-30T06:50:52;16.33;;;3.00;;
41293;SDS011;27037;52.010;4.446;2023-07-30T06:53:18;23.08;;;3.55;;
41293;SDS011;27037;52.010;4.446;2023-07-30T06:55:44;25.30;;;3.67;;
41293;SDS011;27037;52.010;4.446;2023-07-30T06:58:10;18.20;;;3.13;;
41293;SDS011;27037;52.010;4.446;2023-07-30T07:00:36;21.08;;;4.00;;
41293;SDS011;27037;52.010;4.446;2023-07-30T07:03:02;27.67;;;4.90;;
41293;SDS011;27037;52.010;4.446;2023-07-30T07:05:28;23.73;;;4.90;;
41293;SDS011;27037;52.010;4.446;2023-07-30T07:07:54;23.90;;;4.45;;
41293;SDS011;27037;52.010;4.446;2023-07-30T07:10:20;26.13;;;4.53;;
41293;SDS011;27037;52.010;4.446;2023-07-30T07:12:46;26.35;;;4.45;;
41293;SDS011;27037;52.010;4.446;2023-07-30T07:15:12;23.50;;;4.38;;
41293;SDS011;27037;52.010;4.446;2023-07-30T07:17:38;25.67;;;4.25;;
41293;SDS011;27037;52.010;4.446;2023-07-30T07:20:04;24.27;;;4.20;;
41293;SDS011;27037;52.010;4.446;2023-07-30T07:22:32;22.77;;;4.03;;
41293;SDS011;27037;52.010;4.446;2023-07-30T07:24:58;21.33;;;3.80;;
41293;SDS011;27037;52.010;4.446;2023-07-30T07:27:23;22.27;;;4.22;;
41293;SDS011;27037;52.010;4.446;2023-07-30T07:29:49;17.45;;;3.10;;
41293;SDS011;27037;52.010;4.446;2023-07-30T07:32:16;16.05;;;3.33;;
41293;SDS011;27037;52.010;4.446;2023-07-30T07:34:45;15.25;;;2.58;;
41293;SDS011;27037;52.010;4.446;2023-07-30T07:37:12;15.13;;;2.50;;
41293;SDS011;27037;52.010;4.446;2023-07-30T07:39:40;17.65;;;2.72;;
41293;SDS011;27037;52.010;4.446;2023-07-30T07:42:09;19.67;;;2.80;;
41293;SDS011;27037;52.010;4.446;2023-07-30T07:44:34;13.32;;;2.60;;
41293;SDS011;27037;52.010;4.446;2023-07-30T07:47:00;9.60;;;2.20;;
41293;SDS011;27037;52.010;4.446;2023-07-30T07:49:26;11.45;;;2.47;;
41293;SDS011;27037;52.010;4.446;2023-07-30T07:51:52;13.85;;;2.90;;
41293;SDS011;27037;52.010;4.446;2023-07-30T07:54:18;10.48;;;1.92;;
41293;SDS011;27037;52.010;4.446;2023-07-30T07:56:43;12.95;;;2.50;;
41293;SDS011;27037;52.010;4.446;2023-07-30T07:59:09;13.90;;;2.95;;
41293;SDS011;27037;52.010;4.446;2023-07-30T08:01:34;14.75;;;2.30;;
41293;SDS011;27037;52.010;4.446;2023-07-30T08:04:00;17.20;;;2.28;;
41293;SDS011;27037;52.010;4.446;2023-07-30T08:06:26;14.43;;;2.20;;
41293;SDS011;27037;52.010;4.446;2023-07-30T08:08:52;13.43;;;2.58;;
41293;SDS011;27037;52.010;4.446;2023-07-30T08:11:17;14.65;;;2.60;;
41293;SDS011;27037;52.010;4.446;2023-07-30T08:13:43;14.95;;;2.65;;
41293;SDS011;27037;52.010;4.446;2023-07-30T08:16:09;10.90;;;2.10;;
41293;SDS011;27037;52.010;4.446;2023-07-30T08:18:34;14.70;;;2.40;;
41293;SDS011;27037;52.010;4.446;2023-07-30T08:21:00;12.00;;;2.10;;
41293;SDS011;27037;52.010;4.446;2023-07-30T08:23:26;11.38;;;2.58;;
41293;SDS011;27037;52.010;4.446;2023-07-30T08:25:51;18.58;;;2.65;;
41293;SDS011;27037;52.010;4.446;2023-07-30T08:28:17;15.45;;;2.50;;
41293;SDS011;27037;52.010;4.446;2023-07-30T08:30:43;11.80;;;2.50;;
41293;SDS011;27037;52.010;4.446;2023-07-30T08:33:09;15.95;;;2.60;;
41293;SDS011;27037;52.010;4.446;2023-07-30T08:35:35;16.42;;;2.47;;
41293;SDS011;27037;52.010;4.446;2023-07-30T08:38:00;18.58;;;3.08;;
41293;SDS011;27037;52.010;4.446;2023-07-30T08:40:26;10.55;;;2.20;;
41293;SDS011;27037;52.010;4.446;2023-07-30T08:42:52;14.27;;;2.58;;
41293;SDS011;27037;52.010;4.446;2023-07-30T08:45:18;14.25;;;2.67;;
41293;SDS011;27037;52.010;4.446;2023-07-30T08:47:44;11.73;;;2.70;;
41293;SDS011;27037;52.010;4.446;2023-07-30T08:50:11;14.68;;;2.75;;
41293;SDS011;27037;52.010;4.446;2023-07-30T08:52:37;13.65;;;2.60;;
41293;SDS011;27037;52.010;4.446;2023-07-30T08:55:04;10.38;;;2.58;;
41293;SDS011;27037;52.010;4.446;2023-07-30T08:57:30;15.40;;;2.55;;
41293;SDS011;27037;52.010;4.446;2023-07-30T09:00:02;15.30;;;2.45;;
41293;SDS011;27037;52.010;4.446;2023-07-30T09:05:06;9.93;;;2.30;;
41293;SDS011;27037;52.010;4.446;2023-07-30T09:07:32;14.45;;;2.42;;
41293;SDS011;27037;52.010;4.446;2023-07-30T09:09:58;12.30;;;2.45;;
41293;SDS011;27037;52.010;4.446;2023-07-30T09:12:30;15.23;;;2.60;;
41293;SDS011;27037;52.010;4.446;2023-07-30T09:14:56;12.73;;;2.67;;
41293;SDS011;27037;52.010;4.446;2023-07-30T09:17:22;14.98;;;2.80;;
41293;SDS011;27037;52.010;4.446;2023-07-30T09:19:51;14.95;;;2.53;;
41293;SDS011;27037;52.010;4.446;2023-07-30T09:22:27;10.10;;;2.13;;
41293;SDS011;27037;52.010;4.446;2023-07-30T09:24:56;8.77;;;2.20;;
41293;SDS011;27037;52.010;4.446;2023-07-30T09:27:24;12.82;;;2.50;;
41293;SDS011;27037;52.010;4.446;2023-07-30T09:30:00;9.45;;;2.05;;
41293;SDS011;27037;52.010;4.446;2023-07-30T09:32:28;12.40;;;2.50;;
41293;SDS011;27037;52.010;4.446;2023-07-30T09:34:56;8.95;;;2.05;;
41293;SDS011;27037;52.010;4.446;2023-07-30T09:37:35;14.57;;;2.45;;
41293;SDS011;27037;52.010;4.446;2023-07-30T09:40:04;15.80;;;2.58;;
41293;SDS011;27037;52.010;4.446;2023-07-30T09:42:32;15.15;;;2.78;;
41293;SDS011;27037;52.010;4.446;2023-07-30T09:45:04;13.55;;;2.65;;
41293;SDS011;27037;52.010;4.446;2023-07-30T09:47:32;8.63;;;2.10;;
41293;SDS011;27037;52.010;4.446;2023-07-30T09:50:00;15.85;;;2.47;;
41293;SDS011;27037;52.010;4.446;2023-07-30T09:52:26;8.82;;;1.95;;
41293;SDS011;27037;52.010;4.446;2023-07-30T09:54:53;11.98;;;2.22;;
41293;SDS011;27037;52.010;4.446;2023-07-30T09:57:20;14.18;;;2.60;;
41293;SDS011;27037;52.010;4.446;2023-07-30T09:59:46;14.40;;;2.53;;
41293;SDS011;27037;52.010;4.446;2023-07-30T10:02:12;10.35;;;2.30;;
41293;SDS011;27037;52.010;4.446;2023-07-30T10:04:39;9.55;;;2.03;;
41293;SDS011;27037;52.010;4.446;2023-07-30T10:07:10;10.25;;;2.28;;
41293;SDS011;27037;52.010;4.446;2023-07-30T10:09:42;11.60;;;2.15;;
41293;SDS011;27037;52.010;4.446;2023-07-30T10:12:11;11.82;;;2.28;;
41293;SDS011;27037;52.010;4.446;2023-07-30T10:14:40;13.63;;;2.33;;
41293;SDS011;27037;52.010;4.446;2023-07-30T10:17:09;13.30;;;2.40;;
41293;SDS011;27037;52.010;4.446;2023-07-30T10:19:35;10.85;;;2.10;;
41293;SDS011;27037;52.010;4.446;2023-07-30T10:22:19;10.98;;;2.58;;
41293;SDS011;27037;52.010;4.446;2023-07-30T10:27:36;13.77;;;2.30;;
41293;SDS011;27037;52.010;4.446;2023-07-30T10:38:19;11.80;;;2.28;;
41293;SDS011;27037;52.010;4.446;2023-07-30T10:41:07;11.80;;;2.15;;
41293;SDS011;27037;52.010;4.446;2023-07-30T10:46:05;13.32;;;2.20;;
41293;SDS011;27037;52.010;4.446;2023-07-30T10:48:34;14.30;;;2.60;;
41293;SDS011;27037;52.010;4.446;2023-07-30T10:51:06;12.52;;;2.35;;
41293;SDS011;27037;52.010;4.446;2023-07-30T10:53:33;8.93;;;1.90;;
41293;SDS011;27037;52.010;4.446;2023-07-30T10:56:03;11.05;;;2.20;;
41293;SDS011;27037;52.010;4.446;2023-07-30T10:58:30;12.65;;;2.00;;
41293;SDS011;27037;52.010;4.446;2023-07-30T11:00:57;10.57;;;2.13;;
41293;SDS011;27037;52.010;4.446;2023-07-30T11:03:26;10.25;;;2.15;;
41293;SDS011;27037;52.010;4.446;2023-07-30T11:05:53;10.45;;;1.83;;
41293;SDS011;27037;52.010;4.446;2023-07-30T11:08:19;7.22;;;1.63;;
41293;SDS011;27037;52.010;4.446;2023-07-30T11:10:47;11.30;;;1.90;;
41293;SDS011;27037;52.010;4.446;2023-07-30T11:13:13;13.98;;;2.13;;
41293;SDS011;27037;52.010;4.446;2023-07-30T11:15:43;8.32;;;1.83;;
41293;SDS011;27037;52.010;4.446;2023-07-30T11:18:09;7.05;;;1.70;;
41293;SDS011;27037;52.010;4.446;2023-07-30T11:20:36;11.15;;;2.05;;
41293;SDS011;27037;52.010;4.446;2023-07-30T11:23:02;9.05;;;1.92;;
41293;SDS011;27037;52.010;4.446;2023-07-30T11:25:28;8.07;;;1.92;;
41293;SDS011;27037;52.010;4.446;2023-07-30T11:27:53;12.38;;;2.10;;
41293;SDS011;27037;52.010;4.446;2023-07-30T11:30:19;11.63;;;2.28;;
41293;SDS011;27037;52.010;4.446;2023-07-30T11:32:45;12.23;;;2.10;;
41293;SDS011;27037;52.010;4.446;2023-07-30T11:35:11;10.50;;;2.22;;
41293;SDS011;27037;52.010;4.446;2023-07-30T11:37:40;8.50;;;1.77;;
41293;SDS011;27037;52.010;4.446;2023-07-30T11:40:08;8.68;;;1.80;;
41293;SDS011;27037;52.010;4.446;2023-07-30T11:42:35;10.82;;;1.92;;
41293;SDS011;27037;52.010;4.446;2023-07-30T11:45:20;7.25;;;1.48;;
41293;SDS011;27037;52.010;4.446;2023-07-30T11:47:47;9.60;;;1.80;;
41293;SDS011;27037;52.010;4.446;2023-07-30T11:50:14;15.70;;;2.25;;
41293;SDS011;27037;52.010;4.446;2023-07-30T11:55:18;11.05;;;1.70;;
41293;SDS011;27037;52.010;4.446;2023-07-30T11:57:44;11.05;;;1.90;;
41293;SDS011;27037;52.010;4.446;2023-07-30T12:00:10;11.07;;;1.80;;
41293;SDS011;27037;52.010;4.446;2023-07-30T12:02:37;10.43;;;1.92;;
41293;SDS011;27037;52.010;4.446;2023-07-30T12:05:03;12.75;;;2.00;;
41293;SDS011;27037;52.010;4.446;2023-07-30T12:07:29;13.77;;;2.33;;
41293;SDS011;27037;52.010;4.446;2023-07-30T12:10:10;8.93;;;1.50;;
41293;SDS011;27037;52.010;4.446;2023-07-30T12:12:46;9.20;;;1.55;;
41293;SDS011;27037;52.010;4.446;2023-07-30T12:15:18;10.75;;;1.90;;
41293;SDS011;27037;52.010;4.446;2023-07-30T12:17:43;11.25;;;1.75;;
41293;SDS011;27037;52.010;4.446;2023-07-30T12:20:11;7.22;;;1.60;;
41293;SDS011;27037;52.010;4.446;2023-07-30T12:22:36;8.75;;;1.52;;
41293;SDS011;27037;52.010;4.446;2023-07-30T12:25:03;10.23;;;1.80;;
41293;SDS011;27037;52.010;4.446;2023-07-30T12:27:30;7.93;;;1.67;;
41293;SDS011;27037;52.010;4.446;2023-07-30T12:29:56;8.80;;;1.70;;
41293;SDS011;27037;52.010;4.446;2023-07-30T12:32:21;10.00;;;1.73;;
41293;SDS011;27037;52.010;4.446;2023-07-30T12:34:47;12.27;;;1.80;;
41293;SDS011;27037;52.010;4.446;2023-07-30T12:37:12;6.22;;;1.67;;
41293;SDS011;27037;52.010;4.446;2023-07-30T12:39:39;9.02;;;1.63;;
41293;SDS011;27037;52.010;4.446;2023-07-30T12:42:04;8.82;;;1.70;;
41293;SDS011;27037;52.010;4.446;2023-07-30T12:44:30;11.38;;;1.80;;
41293;SDS011;27037;52.010;4.446;2023-07-30T12:46:55;11.70;;;2.08;;
41293;SDS011;27037;52.010;4.446;2023-07-30T12:49:21;11.00;;;1.80;;
41293;SDS011;27037;52.010;4.446;2023-07-30T12:51:47;6.53;;;1.60;;
41293;SDS011;27037;52.010;4.446;2023-07-30T12:54:13;9.70;;;1.92;;
41293;SDS011;27037;52.010;4.446;2023-07-30T12:56:38;12.23;;;2.00;;
41293;SDS011;27037;52.010;4.446;2023-07-30T12:59:04;13.85;;;2.10;;
41293;SDS011;27037;52.010;4.446;2023-07-30T13:01:30;10.43;;;1.77;;
41293;SDS011;27037;52.010;4.446;2023-07-30T13:03:55;12.60;;;1.90;;
41293;SDS011;27037;52.010;4.446;2023-07-30T13:06:21;11.65;;;2.05;;
41293;SDS011;27037;52.010;4.446;2023-07-30T13:08:47;11.40;;;2.20;;
41293;SDS011;27037;52.010;4.446;2023-07-30T13:11:12;13.38;;;2.08;;
41293;SDS011;27037;52.010;4.446;2023-07-30T13:13:38;11.77;;;2.25;;
41293;SDS011;27037;52.010;4.446;2023-07-30T13:16:04;10.02;;;2.10;;
41293;SDS011;27037;52.010;4.446;2023-07-30T13:18:30;16.73;;;2.28;;
41293;SDS011;27037;52.010;4.446;2023-07-30T13:20:55;14.25;;;2.50;;
41293;SDS011;27037;52.010;4.446;2023-07-30T13:23:21;12.68;;;1.98;;
41293;SDS011;27037;52.010;4.446;2023-07-30T13:25:46;15.55;;;2.47;;
41293;SDS011;27037;52.010;4.446;2023-07-30T13:28:12;15.57;;;2.45;;
41293;SDS011;27037;52.010;4.446;2023-07-30T13:30:38;14.43;;;2.80;;
41293;SDS011;27037;52.010;4.446;2023-07-30T13:33:03;17.23;;;2.88;;
41293;SDS011;27037;52.010;4.446;2023-07-30T13:35:29;16.13;;;2.88;;
41293;SDS011;27037;52.010;4.446;2023-07-30T13:37:54;15.48;;;2.92;;
41293;SDS011;27037;52.010;4.446;2023-07-30T13:40:20;13.13;;;2.42;;
41293;SDS011;27037;52.010;4.446;2023-07-30T13:42:46;12.10;;;2.30;;
41293;SDS011;27037;52.010;4.446;2023-07-30T13:45:11;18.42;;;2.70;;
41293;SDS011;27037;52.010;4.446;2023-07-30T13:47:37;14.60;;;2.70;;
41293;SDS011;27037;52.010;4.446;2023-07-30T13:50:02;13.43;;;2.95;;
41293;SDS011;27037;52.010;4.446;2023-07-30T13:52:28;20.02;;;2.95;;
41293;SDS011;27037;52.010;4.446;2023-07-30T13:54:54;17.38;;;3.47;;
41293;SDS011;27037;52.010;4.446;2023-07-30T13:57:23;20.17;;;3.50;;
41293;SDS011;27037;52.010;4.446;2023-07-30T13:59:49;21.75;;;4.55;;
41293;SDS011;27037;52.010;4.446;2023-07-30T14:02:16;20.80;;;3.22;;
41293;SDS011;27037;52.010;4.446;2023-07-30T14:04:41;17.73;;;3.55;;
41293;SDS011;27037;52.010;4.446;2023-07-30T14:07:07;17.50;;;3.33;;
41293;SDS011;27037;52.010;4.446;2023-07-30T14:09:33;16.15;;;3.13;;
41293;SDS011;27037;52.010;4.446;2023-07-30T14:12:01;19.48;;;3.38;;
41293;SDS011;27037;52.010;4.446;2023-07-30T14:14:30;18.75;;;3.90;;
41293;SDS011;27037;52.010;4.446;2023-07-30T14:16:55;15.95;;;3.47;;
41293;SDS011;27037;52.010;4.446;2023-07-30T14:19:22;21.92;;;4.03;;
41293;SDS011;27037;52.010;4.446;2023-07-30T14:21:47;25.00;;;4.05;;
41293;SDS011;27037;52.010;4.446;2023-07-30T14:24:13;14.75;;;3.50;;
41293;SDS011;27037;52.010;4.446;2023-07-30T14:26:39;19.75;;;4.18;;
41293;SDS011;27037;52.010;4.446;2023-07-30T14:29:05;22.15;;;4.07;;
41293;SDS011;27037;52.010;4.446;2023-07-30T14:31:30;17.35;;;4.10;;
41293;SDS011;27037;52.010;4.446;2023-07-30T14:33:56;21.70;;;3.88;;
41293;SDS011;27037;52.010;4.446;2023-07-30T14:36:22;21.67;;;4.22;;
41293;SDS011;27037;52.010;4.446;2023-07-30T14:38:48;23.23;;;4.57;;
41293;SDS011;27037;52.010;4.446;2023-07-30T14:41:14;31.33;;;5.25;;
41293;SDS011;27037;52.010;4.446;2023-07-30T14:43:39;32.53;;;5.10;;
41293;SDS011;27037;52.010;4.446;2023-07-30T14:46:05;28.17;;;5.13;;
41293;SDS011;27037;52.010;4.446;2023-07-30T14:48:31;31.30;;;5.55;;
41293;SDS011;27037;52.010;4.446;2023-07-30T14:50:57;25.88;;;5.40;;